Maple Ridge, Canada
Current Conditions -  °F | °C
As of 7:00 PM on Saturday 25 Oct 2014 (Local Time) from CYXX Reporting Station
Heavy Rain Heavy Rain  
Wind Chill: 50°   Ceiling: 3500
Heat Index: 50°   Visibility: 6mi
Dew Point: 50°   Wind: 5mph
Humidity: 100%   Direction: 70°ENE
Pressure: 29.28"   Gusts: NA
Location:  49.22°N, 122.6°W
Report Text: CYXX 260200Z 07004KT 6SM +RA SCT020 OVC035 10/10 A2928 RMK SF3NS5 SLP914 DENSITY ALT 400FT
Loading
Personal Weather Stations






























Interactive Weather Map
Tropical Storm Tracking
New forecast layout! Learn more

10-Day Weather Forecast

Advertisements
Track Severe Weather on mobile